Depesza METAR lotniska Warszawa-Okęcie

METAR = EPWA 190900Z 29006KT 260V320 9999 -RA SCT008 BKN040 04/02 Q1018 TEMPO BKN008

STACJA......... EPWA - Warszawa-Okęcie (WAW)
POMIAR......... Sun Apr 19, 11:00 CEST
TERAZ.......... Sun Apr 19, 11:26 CEST
CZAS........... 26 min temu
WIATR.......... zachodni północno-zachodni (WNW) z prędkością 11 km/h
WIDZIALNOŚĆ.. powyżej 10 kilometrów
WARUNKI........ słaby: deszcz 
CHMURY......... zachmurzenie średnie (5/8-7/8)
TEMPERATURA.... 4°C
T.PUNKTU ROSY.. 2°C
WILGOTNOŚĆ... 87%
T.ODCZUWALNA... 1°C
CIŚNIENIE..... 1018 hPa
PROGNOZA....... spodziewane krótkookresowa zmiana (<1h)

Depesza METAR lotniska Kraków-Balice

METAR = EPKK 190900Z 23009KT 200V260 9999 FEW030 SCT040 08/00 Q1020

STACJA......... EPKK - Kraków-Balice (KRK)
POMIAR......... Sun Apr 19, 11:00 CEST
TERAZ.......... Sun Apr 19, 11:27 CEST
CZAS........... 27 min temu
WIATR.......... południowo-zachodni (SW) z prędkością 17 km/h
WIDZIALNOŚĆ.. powyżej 10 kilometrów
CHMURY......... zachmurzenie małe (3/8-4/8)
TEMPERATURA.... 8°C
T.PUNKTU ROSY.. 0°C
WILGOTNOŚĆ... 57%
T.ODCZUWALNA... 5°C
CIŚNIENIE..... 1020 hPa

Depesza METAR lotniska Łódź-Lublinek

METAR = EPLL 190900Z 28008KT CAVOK 06/00 Q1019

STACJA......... EPLL - Łódź-Lublinek (LCJ)
POMIAR......... Sun Apr 19, 11:00 CEST
TERAZ.......... Sun Apr 19, 11:27 CEST
CZAS........... 27 min temu
WIATR.......... zachodni (W) z prędkością 15 km/h
WIDZIALNOŚĆ.. powyżej 10 kilometrów
CHMURY......... bezchmurne niebo
TEMPERATURA.... 6°C
T.PUNKTU ROSY.. 0°C
WILGOTNOŚĆ... 66%
T.ODCZUWALNA... 3°C
CIŚNIENIE..... 1019 hPa

Depesza METAR lotniska Wrocław-Strachowice

METAR = EPWR 190900Z 32008KT 240V350 CAVOK 10/M02 Q1022

STACJA......... EPWR - Wrocław-Strachowice (WRO)
POMIAR......... Sun Apr 19, 11:00 CEST
TERAZ.......... Sun Apr 19, 11:27 CEST
CZAS........... 27 min temu
WIATR.......... północno zachodni (NW) z prędkością 15 km/h
WIDZIALNOŚĆ.. powyżej 10 kilometrów
CHMURY......... bezchmurne niebo
TEMPERATURA.... 10°C
T.PUNKTU ROSY.. -2°C
WILGOTNOŚĆ... 43%
T.ODCZUWALNA... 8°C
CIŚNIENIE..... 1022 hPa

Depesza METAR lotniska Katowice-Pyrzowice

METAR = EPKT 190900Z 29010KT 9999 SCT030 07/M01 Q1020

STACJA......... EPKT - Katowice-Pyrzowice (KTW)
POMIAR......... Sun Apr 19, 11:00 CEST
TERAZ.......... Sun Apr 19, 11:27 CEST
CZAS........... 27 min temu
WIATR.......... zachodni północno-zachodni (WNW) z prędkością 19 km/h
WIDZIALNOŚĆ.. powyżej 10 kilometrów
CHMURY......... zachmurzenie małe (3/8-4/8)
TEMPERATURA.... 7°C
T.PUNKTU ROSY.. -1°C
WILGOTNOŚĆ... 57%
T.ODCZUWALNA... 4°C
CIŚNIENIE..... 1020 hPa

Depesza METAR lotniska Gdańsk

METAR = EPGD 190900Z 35013KT 330V040 9999 SCT023 06/01 Q1020

STACJA......... EPGD - Gdańsk im. Lecha Wałęsy (GDN)
POMIAR......... Sun Apr 19, 11:00 CEST
TERAZ.......... Sun Apr 19, 11:27 CEST
CZAS........... 27 min temu
WIATR.......... północny (N) z prędkością 24 km/h
WIDZIALNOŚĆ.. powyżej 10 kilometrów
CHMURY......... zachmurzenie małe (3/8-4/8)
TEMPERATURA.... 6°C
T.PUNKTU ROSY.. 1°C
WILGOTNOŚĆ... 71%
T.ODCZUWALNA... 2°C
CIŚNIENIE..... 1020 hPa

Depesza METAR lotniska Poznań-Ławica

METAR = EPPO 190900Z 29012KT 9999 FEW043 11/00 Q1020

STACJA......... EPPO - Poznań-Ławica (POZ)
POMIAR......... Sun Apr 19, 11:00 CEST
TERAZ.......... Sun Apr 19, 11:27 CEST
CZAS........... 27 min temu
WIATR.......... zachodni północno-zachodni (WNW) z prędkością 22 km/h
WIDZIALNOŚĆ.. powyżej 10 kilometrów
CHMURY......... zachmurzenie niewielkie (1/8-2/8)
TEMPERATURA.... 11°C
T.PUNKTU ROSY.. 0°C
WILGOTNOŚĆ... 47%
CIŚNIENIE..... 1020 hPa

Depesza METAR lotniska Rzeszów-Jasionka

METAR = EPRZ 190900Z 29013KT 9999 BKN033 07/M00 Q1019

STACJA......... EPRZ - Rzeszów-Jasionka (RZE)
POMIAR......... Sun Apr 19, 11:00 CEST
TERAZ.......... Sun Apr 19, 11:27 CEST
CZAS........... 27 min temu
WIATR.......... zachodni północno-zachodni (WNW) z prędkością 24 km/h
WIDZIALNOŚĆ.. powyżej 10 kilometrów
CHMURY......... zachmurzenie średnie (5/8-7/8)
TEMPERATURA.... 7°C
T.PUNKTU ROSY.. 0°C
WILGOTNOŚĆ... 61%
T.ODCZUWALNA... 3°C
CIŚNIENIE..... 1019 hPa

Depesza METAR lotniska Szczecin-Goleniów

METAR = EPSC 190900Z 35007KT 9999 SCT030 11/03 Q1022

STACJA......... EPSC - Szczecin-Goleniów (SZZ)
POMIAR......... Sun Apr 19, 11:00 CEST
TERAZ.......... Sun Apr 19, 11:27 CEST
CZAS........... 27 min temu
WIATR.......... północny (N) z prędkością 13 km/h
WIDZIALNOŚĆ.. powyżej 10 kilometrów
CHMURY......... zachmurzenie małe (3/8-4/8)
TEMPERATURA.... 11°C
T.PUNKTU ROSY.. 3°C
WILGOTNOŚĆ... 58%
CIŚNIENIE..... 1022 hPa

Depesza METAR lotniska Lublin-Świdnik

METAR = EPLB 170930Z 08006KT 2000 -RA BR FEW006 OVC011 12/11 Q1009

STACJA......... EPLB - Lublin-Świdnik (LUZ)
POMIAR......... Fri Oct 17, 11:30 CEST
TERAZ.......... Sun Apr 19, 11:27 CEST
CZAS........... 4415:57 godz temu
WIATR.......... wschodni (E) z prędkością 11 km/h
WIDZIALNOŚĆ.. 2000 metrów
WARUNKI........ słaby: deszcz  & zamglenie 
CHMURY......... zachmurzenie całkowite (8/8)
TEMPERATURA.... 12°C
T.PUNKTU ROSY.. 11°C
WILGOTNOŚĆ... 94%
CIŚNIENIE..... 1009 hPa

Sprawdź też: prognoza pogody dla miast w Polsce!